sensor_id;sensor_type;location;lat;lon;timestamp;P1;durP1;ratioP1;P2;durP2;ratioP2
20739;SDS011;10530;49.968;19.844;2023-06-10T00:03:05;27.90;;;13.07;;
20739;SDS011;10530;49.968;19.844;2023-06-10T00:08:08;25.75;;;12.43;;
20739;SDS011;10530;49.968;19.844;2023-06-10T00:13:10;28.20;;;12.50;;
20739;SDS011;10530;49.968;19.844;2023-06-10T00:18:13;27.88;;;12.35;;
20739;SDS011;10530;49.968;19.844;2023-06-10T00:23:16;24.53;;;11.87;;
20739;SDS011;10530;49.968;19.844;2023-06-10T00:28:19;25.67;;;12.13;;
20739;SDS011;10530;49.968;19.844;2023-06-10T00:33:22;27.27;;;12.00;;
20739;SDS011;10530;49.968;19.844;2023-06-10T00:38:25;31.60;;;12.23;;
20739;SDS011;10530;49.968;19.844;2023-06-10T00:43:27;30.02;;;12.88;;
20739;SDS011;10530;49.968;19.844;2023-06-10T00:48:30;26.47;;;12.23;;
20739;SDS011;10530;49.968;19.844;2023-06-10T00:53:34;27.20;;;12.77;;
20739;SDS011;10530;49.968;19.844;2023-06-10T00:58:38;27.77;;;11.98;;
20739;SDS011;10530;49.968;19.844;2023-06-10T01:03:42;26.73;;;12.80;;
20739;SDS011;10530;49.968;19.844;2023-06-10T01:08:50;29.20;;;13.85;;
20739;SDS011;10530;49.968;19.844;2023-06-10T01:13:59;29.20;;;12.30;;
20739;SDS011;10530;49.968;19.844;2023-06-10T01:19:03;29.42;;;12.93;;
20739;SDS011;10530;49.968;19.844;2023-06-10T01:24:06;28.02;;;13.05;;
20739;SDS011;10530;49.968;19.844;2023-06-10T01:29:48;27.23;;;12.90;;
20739;SDS011;10530;49.968;19.844;2023-06-10T01:34:55;28.60;;;13.43;;
20739;SDS011;10530;49.968;19.844;2023-06-10T01:39:59;29.13;;;12.13;;
20739;SDS011;10530;49.968;19.844;2023-06-10T01:45:09;28.98;;;12.88;;
20739;SDS011;10530;49.968;19.844;2023-06-10T01:50:12;25.50;;;12.00;;
20739;SDS011;10530;49.968;19.844;2023-06-10T01:55:15;26.83;;;12.37;;
20739;SDS011;10530;49.968;19.844;2023-06-10T02:00:18;27.60;;;12.52;;
20739;SDS011;10530;49.968;19.844;2023-06-10T02:05:20;27.87;;;12.23;;
20739;SDS011;10530;49.968;19.844;2023-06-10T02:10:23;30.30;;;13.45;;
20739;SDS011;10530;49.968;19.844;2023-06-10T02:15:26;28.80;;;12.88;;
20739;SDS011;10530;49.968;19.844;2023-06-10T02:20:29;27.33;;;13.17;;
20739;SDS011;10530;49.968;19.844;2023-06-10T02:25:32;26.50;;;12.05;;
20739;SDS011;10530;49.968;19.844;2023-06-10T02:30:35;26.50;;;12.50;;
20739;SDS011;10530;49.968;19.844;2023-06-10T02:35:38;30.52;;;13.80;;
20739;SDS011;10530;49.968;19.844;2023-06-10T02:40:42;24.33;;;11.68;;
20739;SDS011;10530;49.968;19.844;2023-06-10T02:45:46;27.33;;;12.67;;
20739;SDS011;10530;49.968;19.844;2023-06-10T02:50:50;30.42;;;14.10;;
20739;SDS011;10530;49.968;19.844;2023-06-10T02:56:08;29.73;;;13.53;;
20739;SDS011;10530;49.968;19.844;2023-06-10T03:01:11;30.40;;;13.73;;
20739;SDS011;10530;49.968;19.844;2023-06-10T03:06:35;35.50;;;14.50;;
20739;SDS011;10530;49.968;19.844;2023-06-10T03:11:56;33.10;;;14.67;;
20739;SDS011;10530;49.968;19.844;2023-06-10T03:16:59;33.13;;;14.20;;
20739;SDS011;10530;49.968;19.844;2023-06-10T03:22:12;31.27;;;13.40;;
20739;SDS011;10530;49.968;19.844;2023-06-10T03:27:45;29.60;;;13.63;;
20739;SDS011;10530;49.968;19.844;2023-06-10T03:32:48;26.90;;;13.52;;
20739;SDS011;10530;49.968;19.844;2023-06-10T03:37:53;27.30;;;13.87;;
20739;SDS011;10530;49.968;19.844;2023-06-10T03:42:56;30.50;;;13.70;;
20739;SDS011;10530;49.968;19.844;2023-06-10T03:47:59;28.37;;;13.53;;
20739;SDS011;10530;49.968;19.844;2023-06-10T03:53:12;30.30;;;13.55;;
20739;SDS011;10530;49.968;19.844;2023-06-10T03:58:17;29.73;;;12.98;;
20739;SDS011;10530;49.968;19.844;2023-06-10T04:03:20;25.97;;;11.37;;
20739;SDS011;10530;49.968;19.844;2023-06-10T04:08:26;29.38;;;12.98;;
20739;SDS011;10530;49.968;19.844;2023-06-10T04:13:28;26.37;;;12.60;;
20739;SDS011;10530;49.968;19.844;2023-06-10T04:18:33;26.55;;;12.43;;
20739;SDS011;10530;49.968;19.844;2023-06-10T04:23:40;24.52;;;11.40;;
20739;SDS011;10530;49.968;19.844;2023-06-10T04:28:44;24.37;;;10.97;;
20739;SDS011;10530;49.968;19.844;2023-06-10T04:33:47;24.88;;;11.02;;
20739;SDS011;10530;49.968;19.844;2023-06-10T04:38:50;25.47;;;11.83;;
20739;SDS011;10530;49.968;19.844;2023-06-10T04:43:55;26.50;;;11.60;;
20739;SDS011;10530;49.968;19.844;2023-06-10T04:48:59;25.38;;;11.52;;
20739;SDS011;10530;49.968;19.844;2023-06-10T04:54:02;23.47;;;11.57;;
20739;SDS011;10530;49.968;19.844;2023-06-10T04:59:06;25.75;;;11.20;;
20739;SDS011;10530;49.968;19.844;2023-06-10T05:04:08;27.40;;;12.27;;
20739;SDS011;10530;49.968;19.844;2023-06-10T05:09:11;28.50;;;12.95;;
20739;SDS011;10530;49.968;19.844;2023-06-10T05:14:14;23.77;;;12.85;;
20739;SDS011;10530;49.968;19.844;2023-06-10T05:19:18;25.00;;;12.37;;
20739;SDS011;10530;49.968;19.844;2023-06-10T05:24:21;27.98;;;13.35;;
20739;SDS011;10530;49.968;19.844;2023-06-10T05:29:25;26.00;;;12.23;;
20739;SDS011;10530;49.968;19.844;2023-06-10T05:34:27;21.98;;;11.80;;
20739;SDS011;10530;49.968;19.844;2023-06-10T05:39:31;27.02;;;11.73;;
20739;SDS011;10530;49.968;19.844;2023-06-10T05:44:34;27.10;;;12.10;;
20739;SDS011;10530;49.968;19.844;2023-06-10T05:49:36;24.52;;;11.73;;
20739;SDS011;10530;49.968;19.844;2023-06-10T05:54:39;22.07;;;11.63;;
20739;SDS011;10530;49.968;19.844;2023-06-10T05:59:42;21.33;;;11.90;;
20739;SDS011;10530;49.968;19.844;2023-06-10T06:04:45;20.45;;;10.77;;
20739;SDS011;10530;49.968;19.844;2023-06-10T06:09:47;20.33;;;10.80;;
20739;SDS011;10530;49.968;19.844;2023-06-10T06:14:50;22.02;;;11.40;;
20739;SDS011;10530;49.968;19.844;2023-06-10T06:19:53;20.00;;;11.10;;
20739;SDS011;10530;49.968;19.844;2023-06-10T06:24:55;20.85;;;10.40;;
20739;SDS011;10530;49.968;19.844;2023-06-10T06:29:58;16.13;;;8.52;;
20739;SDS011;10530;49.968;19.844;2023-06-10T06:35:02;14.30;;;8.43;;
20739;SDS011;10530;49.968;19.844;2023-06-10T06:40:08;14.63;;;8.52;;
20739;SDS011;10530;49.968;19.844;2023-06-10T06:45:11;14.03;;;8.33;;
20739;SDS011;10530;49.968;19.844;2023-06-10T06:50:14;13.80;;;8.23;;
20739;SDS011;10530;49.968;19.844;2023-06-10T06:55:17;14.75;;;8.23;;
20739;SDS011;10530;49.968;19.844;2023-06-10T07:00:20;15.10;;;8.40;;
20739;SDS011;10530;49.968;19.844;2023-06-10T07:05:23;13.93;;;7.28;;
20739;SDS011;10530;49.968;19.844;2023-06-10T07:10:29;13.97;;;7.97;;
20739;SDS011;10530;49.968;19.844;2023-06-10T07:15:32;12.48;;;7.57;;
20739;SDS011;10530;49.968;19.844;2023-06-10T07:20:35;11.75;;;7.20;;
20739;SDS011;10530;49.968;19.844;2023-06-10T07:25:38;12.57;;;7.30;;
20739;SDS011;10530;49.968;19.844;2023-06-10T07:30:41;13.25;;;7.15;;
20739;SDS011;10530;49.968;19.844;2023-06-10T07:35:43;12.70;;;7.50;;
20739;SDS011;10530;49.968;19.844;2023-06-10T07:40:46;12.52;;;7.30;;
20739;SDS011;10530;49.968;19.844;2023-06-10T07:45:49;11.93;;;7.03;;
20739;SDS011;10530;49.968;19.844;2023-06-10T07:50:52;12.73;;;7.60;;
20739;SDS011;10530;49.968;19.844;2023-06-10T07:55:55;12.05;;;7.40;;
20739;SDS011;10530;49.968;19.844;2023-06-10T08:00:58;10.90;;;6.73;;
20739;SDS011;10530;49.968;19.844;2023-06-10T08:06:00;11.00;;;6.53;;
20739;SDS011;10530;49.968;19.844;2023-06-10T08:11:03;12.13;;;7.93;;
20739;SDS011;10530;49.968;19.844;2023-06-10T08:16:06;12.17;;;7.47;;
20739;SDS011;10530;49.968;19.844;2023-06-10T08:21:09;12.27;;;7.13;;
20739;SDS011;10530;49.968;19.844;2023-06-10T08:26:12;12.27;;;7.90;;
20739;SDS011;10530;49.968;19.844;2023-06-10T08:31:15;11.82;;;7.20;;
20739;SDS011;10530;49.968;19.844;2023-06-10T08:36:18;11.85;;;6.85;;
20739;SDS011;10530;49.968;19.844;2023-06-10T08:41:21;11.67;;;7.60;;
20739;SDS011;10530;49.968;19.844;2023-06-10T08:46:27;19.65;;;9.57;;
20739;SDS011;10530;49.968;19.844;2023-06-10T08:51:31;15.60;;;8.30;;
20739;SDS011;10530;49.968;19.844;2023-06-10T08:56:38;44.05;;;20.85;;
20739;SDS011;10530;49.968;19.844;2023-06-10T09:01:45;13.60;;;8.50;;
20739;SDS011;10530;49.968;19.844;2023-06-10T09:06:49;14.43;;;7.40;;
20739;SDS011;10530;49.968;19.844;2023-06-10T09:11:53;12.85;;;7.70;;
20739;SDS011;10530;49.968;19.844;2023-06-10T09:16:55;12.83;;;7.70;;
20739;SDS011;10530;49.968;19.844;2023-06-10T09:21:58;11.93;;;7.22;;
20739;SDS011;10530;49.968;19.844;2023-06-10T09:27:07;10.25;;;6.55;;
20739;SDS011;10530;49.968;19.844;2023-06-10T09:32:10;11.53;;;7.03;;
20739;SDS011;10530;49.968;19.844;2023-06-10T09:37:19;11.40;;;6.65;;
20739;SDS011;10530;49.968;19.844;2023-06-10T09:42:23;11.20;;;6.50;;
20739;SDS011;10530;49.968;19.844;2023-06-10T09:47:26;10.32;;;5.95;;
20739;SDS011;10530;49.968;19.844;2023-06-10T09:52:29;9.40;;;5.78;;
20739;SDS011;10530;49.968;19.844;2023-06-10T09:57:32;9.37;;;5.67;;
20739;SDS011;10530;49.968;19.844;2023-06-10T10:02:45;12.80;;;5.78;;
20739;SDS011;10530;49.968;19.844;2023-06-10T10:07:52;9.43;;;5.80;;
20739;SDS011;10530;49.968;19.844;2023-06-10T10:12:55;12.00;;;6.38;;
20739;SDS011;10530;49.968;19.844;2023-06-10T10:18:01;8.27;;;5.43;;
20739;SDS011;10530;49.968;19.844;2023-06-10T10:23:06;9.70;;;5.50;;
20739;SDS011;10530;49.968;19.844;2023-06-10T10:28:12;12.35;;;6.18;;
20739;SDS011;10530;49.968;19.844;2023-06-10T10:33:20;8.63;;;5.50;;
20739;SDS011;10530;49.968;19.844;2023-06-10T10:38:27;10.50;;;5.53;;
20739;SDS011;10530;49.968;19.844;2023-06-10T10:43:30;7.55;;;4.28;;
20739;SDS011;10530;49.968;19.844;2023-06-10T10:48:36;6.80;;;4.23;;
20739;SDS011;10530;49.968;19.844;2023-06-10T10:53:40;7.82;;;4.57;;
20739;SDS011;10530;49.968;19.844;2023-06-10T10:58:43;8.57;;;5.57;;
20739;SDS011;10530;49.968;19.844;2023-06-10T11:04:10;7.53;;;4.72;;
20739;SDS011;10530;49.968;19.844;2023-06-10T11:09:26;9.20;;;5.18;;
20739;SDS011;10530;49.968;19.844;2023-06-10T11:14:30;8.77;;;5.23;;
20739;SDS011;10530;49.968;19.844;2023-06-10T11:19:37;10.93;;;5.65;;
20739;SDS011;10530;49.968;19.844;2023-06-10T11:24:51;9.07;;;5.17;;
20739;SDS011;10530;49.968;19.844;2023-06-10T11:35:03;7.93;;;4.60;;
20739;SDS011;10530;49.968;19.844;2023-06-10T11:40:06;10.43;;;4.20;;
20739;SDS011;10530;49.968;19.844;2023-06-10T11:45:14;9.07;;;5.53;;
20739;SDS011;10530;49.968;19.844;2023-06-10T11:50:30;8.73;;;5.37;;
20739;SDS011;10530;49.968;19.844;2023-06-10T11:55:41;9.20;;;5.28;;
20739;SDS011;10530;49.968;19.844;2023-06-10T12:00:49;8.57;;;5.45;;
20739;SDS011;10530;49.968;19.844;2023-06-10T12:05:56;12.10;;;5.27;;
20739;SDS011;10530;49.968;19.844;2023-06-10T12:11:00;8.57;;;5.38;;
20739;SDS011;10530;49.968;19.844;2023-06-10T12:16:10;8.77;;;5.30;;
20739;SDS011;10530;49.968;19.844;2023-06-10T12:21:16;7.72;;;4.50;;
20739;SDS011;10530;49.968;19.844;2023-06-10T12:26:33;7.13;;;3.97;;
20739;SDS011;10530;49.968;19.844;2023-06-10T12:32:00;16.40;;;4.57;;
20739;SDS011;10530;49.968;19.844;2023-06-10T12:37:10;6.03;;;3.92;;
20739;SDS011;10530;49.968;19.844;2023-06-10T12:42:16;7.10;;;3.83;;
20739;SDS011;10530;49.968;19.844;2023-06-10T12:47:19;6.00;;;3.80;;
20739;SDS011;10530;49.968;19.844;2023-06-10T12:52:21;7.70;;;3.88;;
20739;SDS011;10530;49.968;19.844;2023-06-10T12:57:24;8.97;;;3.57;;
20739;SDS011;10530;49.968;19.844;2023-06-10T13:02:27;6.53;;;3.72;;
20739;SDS011;10530;49.968;19.844;2023-06-10T13:07:30;6.67;;;3.80;;
20739;SDS011;10530;49.968;19.844;2023-06-10T13:12:33;8.05;;;3.90;;
20739;SDS011;10530;49.968;19.844;2023-06-10T13:17:48;6.20;;;3.50;;
20739;SDS011;10530;49.968;19.844;2023-06-10T13:22:53;6.07;;;3.77;;
20739;SDS011;10530;49.968;19.844;2023-06-10T13:27:55;6.32;;;3.72;;
20739;SDS011;10530;49.968;19.844;2023-06-10T13:32:58;5.73;;;3.37;;
20739;SDS011;10530;49.968;19.844;2023-06-10T13:38:01;7.80;;;3.55;;
20739;SDS011;10530;49.968;19.844;2023-06-10T13:43:04;5.57;;;3.22;;
20739;SDS011;10530;49.968;19.844;2023-06-10T13:48:07;7.20;;;3.40;;
20739;SDS011;10530;49.968;19.844;2023-06-10T13:53:10;7.00;;;3.05;;
20739;SDS011;10530;49.968;19.844;2023-06-10T13:58:14;4.57;;;2.80;;
20739;SDS011;10530;49.968;19.844;2023-06-10T14:03:16;5.75;;;2.70;;
20739;SDS011;10530;49.968;19.844;2023-06-10T14:08:19;4.63;;;2.47;;
20739;SDS011;10530;49.968;19.844;2023-06-10T14:13:23;6.57;;;3.10;;
20739;SDS011;10530;49.968;19.844;2023-06-10T14:18:25;5.53;;;2.95;;
20739;SDS011;10530;49.968;19.844;2023-06-10T14:23:28;4.80;;;2.90;;
20739;SDS011;10530;49.968;19.844;2023-06-10T14:28:31;5.55;;;2.60;;
20739;SDS011;10530;49.968;19.844;2023-06-10T14:33:34;5.93;;;3.30;;
20739;SDS011;10530;49.968;19.844;2023-06-10T14:38:36;5.07;;;2.97;;
20739;SDS011;10530;49.968;19.844;2023-06-10T14:43:39;6.70;;;3.50;;
20739;SDS011;10530;49.968;19.844;2023-06-10T14:48:42;6.90;;;3.60;;
20739;SDS011;10530;49.968;19.844;2023-06-10T14:53:45;8.00;;;3.08;;
20739;SDS011;10530;49.968;19.844;2023-06-10T14:58:47;4.78;;;2.95;;
20739;SDS011;10530;49.968;19.844;2023-06-10T15:03:50;5.37;;;3.03;;
20739;SDS011;10530;49.968;19.844;2023-06-10T15:08:53;7.53;;;3.50;;
20739;SDS011;10530;49.968;19.844;2023-06-10T15:13:56;8.00;;;3.30;;
20739;SDS011;10530;49.968;19.844;2023-06-10T15:18:59;6.13;;;2.92;;
20739;SDS011;10530;49.968;19.844;2023-06-10T15:24:02;5.10;;;2.72;;
20739;SDS011;10530;49.968;19.844;2023-06-10T15:29:05;6.10;;;2.13;;
20739;SDS011;10530;49.968;19.844;2023-06-10T15:34:09;5.28;;;2.85;;
20739;SDS011;10530;49.968;19.844;2023-06-10T15:39:12;4.80;;;2.67;;
20739;SDS011;10530;49.968;19.844;2023-06-10T15:44:14;5.10;;;2.92;;
20739;SDS011;10530;49.968;19.844;2023-06-10T15:49:17;4.75;;;2.60;;
20739;SDS011;10530;49.968;19.844;2023-06-10T15:54:20;5.63;;;2.97;;
20739;SDS011;10530;49.968;19.844;2023-06-10T15:59:23;6.22;;;2.63;;
20739;SDS011;10530;49.968;19.844;2023-06-10T16:04:26;5.63;;;2.80;;
20739;SDS011;10530;49.968;19.844;2023-06-10T16:09:28;5.85;;;2.53;;
20739;SDS011;10530;49.968;19.844;2023-06-10T16:14:31;4.97;;;2.67;;
20739;SDS011;10530;49.968;19.844;2023-06-10T16:19:34;5.60;;;3.10;;
20739;SDS011;10530;49.968;19.844;2023-06-10T16:24:40;5.55;;;2.90;;
20739;SDS011;10530;49.968;19.844;2023-06-10T16:29:44;5.40;;;2.63;;
20739;SDS011;10530;49.968;19.844;2023-06-10T16:34:47;6.40;;;3.30;;
20739;SDS011;10530;49.968;19.844;2023-06-10T16:39:50;6.63;;;3.50;;
20739;SDS011;10530;49.968;19.844;2023-06-10T16:44:53;6.93;;;3.17;;
20739;SDS011;10530;49.968;19.844;2023-06-10T16:49:55;5.95;;;3.65;;
20739;SDS011;10530;49.968;19.844;2023-06-10T16:54:58;7.60;;;3.13;;
20739;SDS011;10530;49.968;19.844;2023-06-10T17:00:01;6.70;;;3.60;;
20739;SDS011;10530;49.968;19.844;2023-06-10T17:05:05;6.47;;;3.70;;
20739;SDS011;10530;49.968;19.844;2023-06-10T17:10:09;6.87;;;3.73;;
20739;SDS011;10530;49.968;19.844;2023-06-10T17:15:12;6.60;;;3.30;;
20739;SDS011;10530;49.968;19.844;2023-06-10T17:20:15;5.93;;;3.40;;
20739;SDS011;10530;49.968;19.844;2023-06-10T17:25:18;5.95;;;3.42;;
20739;SDS011;10530;49.968;19.844;2023-06-10T17:30:21;5.95;;;3.13;;
20739;SDS011;10530;49.968;19.844;2023-06-10T17:35:24;6.53;;;3.40;;
20739;SDS011;10530;49.968;19.844;2023-06-10T17:40:27;8.13;;;3.88;;
20739;SDS011;10530;49.968;19.844;2023-06-10T17:45:30;6.60;;;3.70;;
20739;SDS011;10530;49.968;19.844;2023-06-10T17:50:33;7.53;;;4.15;;
20739;SDS011;10530;49.968;19.844;2023-06-10T17:55:36;6.80;;;3.47;;
20739;SDS011;10530;49.968;19.844;2023-06-10T18:00:39;6.03;;;3.60;;
20739;SDS011;10530;49.968;19.844;2023-06-10T18:05:42;6.90;;;3.40;;
20739;SDS011;10530;49.968;19.844;2023-06-10T18:10:45;7.33;;;4.10;;
20739;SDS011;10530;49.968;19.844;2023-06-10T18:15:48;7.85;;;4.05;;
20739;SDS011;10530;49.968;19.844;2023-06-10T18:20:51;7.60;;;3.83;;
20739;SDS011;10530;49.968;19.844;2023-06-10T18:25:54;7.30;;;3.80;;
20739;SDS011;10530;49.968;19.844;2023-06-10T18:30:58;7.07;;;3.83;;
20739;SDS011;10530;49.968;19.844;2023-06-10T18:36:03;6.50;;;3.63;;
20739;SDS011;10530;49.968;19.844;2023-06-10T18:41:06;7.20;;;4.03;;
20739;SDS011;10530;49.968;19.844;2023-06-10T18:46:09;7.28;;;3.75;;
20739;SDS011;10530;49.968;19.844;2023-06-10T18:51:12;7.20;;;4.40;;
20739;SDS011;10530;49.968;19.844;2023-06-10T18:56:15;6.80;;;3.72;;
20739;SDS011;10530;49.968;19.844;2023-06-10T19:01:18;7.27;;;3.97;;
20739;SDS011;10530;49.968;19.844;2023-06-10T19:06:20;8.70;;;4.57;;
20739;SDS011;10530;49.968;19.844;2023-06-10T19:11:24;8.88;;;3.65;;
20739;SDS011;10530;49.968;19.844;2023-06-10T19:16:27;8.07;;;4.60;;
20739;SDS011;10530;49.968;19.844;2023-06-10T19:21:30;7.93;;;4.43;;
20739;SDS011;10530;49.968;19.844;2023-06-10T19:26:33;6.47;;;3.83;;
20739;SDS011;10530;49.968;19.844;2023-06-10T19:31:40;9.65;;;4.38;;
20739;SDS011;10530;49.968;19.844;2023-06-10T19:36:43;9.98;;;5.10;;
20739;SDS011;10530;49.968;19.844;2023-06-10T19:41:46;19.67;;;7.57;;
20739;SDS011;10530;49.968;19.844;2023-06-10T19:46:50;16.45;;;6.47;;
20739;SDS011;10530;49.968;19.844;2023-06-10T19:51:53;16.60;;;6.37;;
20739;SDS011;10530;49.968;19.844;2023-06-10T19:56:55;14.35;;;5.97;;
20739;SDS011;10530;49.968;19.844;2023-06-10T20:01:58;16.58;;;5.63;;
20739;SDS011;10530;49.968;19.844;2023-06-10T20:07:01;13.37;;;5.87;;
20739;SDS011;10530;49.968;19.844;2023-06-10T20:12:04;15.43;;;5.35;;
20739;SDS011;10530;49.968;19.844;2023-06-10T20:17:08;10.10;;;5.30;;
20739;SDS011;10530;49.968;19.844;2023-06-10T20:22:11;11.00;;;5.70;;
20739;SDS011;10530;49.968;19.844;2023-06-10T20:27:14;9.27;;;5.22;;
20739;SDS011;10530;49.968;19.844;2023-06-10T20:32:17;11.33;;;5.00;;
20739;SDS011;10530;49.968;19.844;2023-06-10T20:37:20;10.60;;;5.93;;
20739;SDS011;10530;49.968;19.844;2023-06-10T20:42:23;10.10;;;5.43;;
20739;SDS011;10530;49.968;19.844;2023-06-10T20:47:26;13.35;;;5.65;;
20739;SDS011;10530;49.968;19.844;2023-06-10T20:52:29;11.10;;;5.45;;
20739;SDS011;10530;49.968;19.844;2023-06-10T20:57:31;9.50;;;5.10;;
20739;SDS011;10530;49.968;19.844;2023-06-10T21:02:37;11.57;;;5.38;;
20739;SDS011;10530;49.968;19.844;2023-06-10T21:07:40;11.53;;;5.37;;
20739;SDS011;10530;49.968;19.844;2023-06-10T21:12:46;11.18;;;5.95;;
20739;SDS011;10530;49.968;19.844;2023-06-10T21:17:49;9.93;;;5.47;;
20739;SDS011;10530;49.968;19.844;2023-06-10T21:22:52;13.93;;;6.10;;
20739;SDS011;10530;49.968;19.844;2023-06-10T21:27:55;11.23;;;5.95;;
20739;SDS011;10530;49.968;19.844;2023-06-10T21:32:58;12.40;;;5.90;;
20739;SDS011;10530;49.968;19.844;2023-06-10T21:38:01;10.75;;;5.35;;
20739;SDS011;10530;49.968;19.844;2023-06-10T21:43:03;9.93;;;5.40;;
20739;SDS011;10530;49.968;19.844;2023-06-10T21:48:07;11.20;;;5.67;;
20739;SDS011;10530;49.968;19.844;2023-06-10T21:53:10;11.68;;;5.57;;
20739;SDS011;10530;49.968;19.844;2023-06-10T21:58:13;10.37;;;5.40;;
20739;SDS011;10530;49.968;19.844;2023-06-10T22:03:16;11.45;;;5.85;;
20739;SDS011;10530;49.968;19.844;2023-06-10T22:08:19;11.40;;;5.85;;
20739;SDS011;10530;49.968;19.844;2023-06-10T22:13:21;10.33;;;5.10;;
20739;SDS011;10530;49.968;19.844;2023-06-10T22:18:24;10.45;;;5.22;;
20739;SDS011;10530;49.968;19.844;2023-06-10T22:23:27;11.93;;;5.83;;
20739;SDS011;10530;49.968;19.844;2023-06-10T22:28:30;10.05;;;5.22;;
20739;SDS011;10530;49.968;19.844;2023-06-10T22:33:33;14.30;;;5.80;;
20739;SDS011;10530;49.968;19.844;2023-06-10T22:38:36;9.07;;;4.77;;
20739;SDS011;10530;49.968;19.844;2023-06-10T22:43:39;11.52;;;5.68;;
20739;SDS011;10530;49.968;19.844;2023-06-10T22:48:42;11.43;;;5.13;;
20739;SDS011;10530;49.968;19.844;2023-06-10T22:53:44;9.65;;;5.43;;
20739;SDS011;10530;49.968;19.844;2023-06-10T22:58:47;11.10;;;4.70;;
20739;SDS011;10530;49.968;19.844;2023-06-10T23:03:50;10.00;;;4.83;;
20739;SDS011;10530;49.968;19.844;2023-06-10T23:08:53;9.68;;;5.15;;
20739;SDS011;10530;49.968;19.844;2023-06-10T23:13:57;13.23;;;4.63;;
20739;SDS011;10530;49.968;19.844;2023-06-10T23:19:00;11.23;;;5.25;;
20739;SDS011;10530;49.968;19.844;2023-06-10T23:24:04;11.77;;;5.47;;
20739;SDS011;10530;49.968;19.844;2023-06-10T23:29:08;11.77;;;5.07;;
20739;SDS011;10530;49.968;19.844;2023-06-10T23:34:10;12.05;;;5.65;;
20739;SDS011;10530;49.968;19.844;2023-06-10T23:39:13;11.03;;;5.33;;
20739;SDS011;10530;49.968;19.844;2023-06-10T23:44:16;13.95;;;6.40;;
20739;SDS011;10530;49.968;19.844;2023-06-10T23:49:20;12.38;;;5.57;;
20739;SDS011;10530;49.968;19.844;2023-06-10T23:54:22;12.77;;;6.13;;
20739;SDS011;10530;49.968;19.844;2023-06-10T23:59:25;11.98;;;5.65;;
